createdAt,value
2018-09-24T00:01:50.061Z,3.10
2018-09-24T00:04:17.945Z,3.20
2018-09-24T00:06:45.848Z,1.73
2018-09-24T00:09:15.836Z,3.97
2018-09-24T00:11:43.807Z,2.30
2018-09-24T00:14:11.735Z,5.70
2018-09-24T00:16:39.623Z,2.23
2018-09-24T00:19:07.665Z,1.13
2018-09-24T00:21:35.560Z,2.33
2018-09-24T00:24:07.470Z,3.63
2018-09-24T00:26:35.359Z,4.07
2018-09-24T00:29:03.270Z,2.83
2018-09-24T00:31:33.500Z,8.97
2018-09-24T00:34:01.387Z,3.90
2018-09-24T00:36:29.328Z,2.70
2018-09-24T00:38:57.224Z,2.27
2018-09-24T00:41:29.160Z,1.20
2018-09-24T00:43:57.046Z,3.53
2018-09-24T00:46:24.943Z,3.83
2018-09-24T00:48:52.824Z,6.20
2018-09-24T00:51:21.142Z,4.10
2018-09-24T00:53:49.111Z,3.17
2018-09-24T00:59:04.027Z,4.20
2018-09-24T01:01:33.907Z,3.27
2018-09-24T01:04:01.901Z,3.10
2018-09-24T01:06:30.160Z,6.27
2018-09-24T01:08:58.023Z,2.93
2018-09-24T01:11:25.883Z,3.70
2018-09-24T01:13:53.850Z,4.03
2018-09-24T01:16:21.745Z,6.80
2018-09-24T01:18:49.710Z,4.90
2018-09-24T01:21:17.658Z,3.80
2018-09-24T01:23:45.639Z,3.97
2018-09-24T01:26:13.511Z,6.47
2018-09-24T01:28:41.482Z,3.30
2018-09-24T01:31:09.351Z,3.77
2018-09-24T01:33:37.312Z,3.27
2018-09-24T01:36:05.243Z,5.83
2018-09-24T01:38:33.119Z,4.70
2018-09-24T01:41:01.047Z,5.00
2018-09-24T01:43:28.983Z,5.57
2018-09-24T01:45:56.877Z,2.97
2018-09-24T01:48:24.755Z,5.33
2018-09-24T01:50:52.622Z,4.37
2018-09-24T01:53:20.546Z,3.80
2018-09-24T01:55:48.404Z,7.13
2018-09-24T01:58:16.399Z,6.03
2018-09-24T02:00:44.299Z,4.27
2018-09-24T02:03:12.191Z,7.10
2018-09-24T02:05:40.045Z,6.70
2018-09-24T02:08:08.068Z,8.40
2018-09-24T02:10:36.937Z,4.97
2018-09-24T02:13:04.804Z,6.70
2018-09-24T02:15:33.438Z,6.30
2018-09-24T02:18:01.401Z,9.40
2018-09-24T02:20:29.456Z,7.40
2018-09-24T02:22:57.342Z,7.97
2018-09-24T02:25:25.215Z,4.87
2018-09-24T02:27:53.108Z,7.47
2018-09-24T02:30:20.983Z,9.20
2018-09-24T02:32:48.892Z,7.63
2018-09-24T02:35:16.787Z,6.97
2018-09-24T02:37:46.227Z,8.30
2018-09-24T02:40:16.628Z,7.20
2018-09-24T02:42:44.534Z,5.53
2018-09-24T02:45:12.403Z,5.53
2018-09-24T02:47:40.370Z,8.40
2018-09-24T02:50:08.286Z,7.53
2018-09-24T02:52:36.166Z,8.47
2018-09-24T02:55:08.488Z,6.93
2018-09-24T02:57:36.349Z,10.57
2018-09-24T03:00:04.461Z,6.30
2018-09-24T03:02:32.419Z,6.70
2018-09-24T03:05:00.310Z,6.77
2018-09-24T03:07:28.343Z,8.87
2018-09-24T03:09:56.228Z,12.67
2018-09-24T03:12:24.164Z,8.53
2018-09-24T03:14:52.023Z,6.30
2018-09-24T03:17:20.179Z,6.70
2018-09-24T03:19:48.064Z,6.93
2018-09-24T03:22:17.927Z,7.33
2018-09-24T03:24:45.845Z,8.43
2018-09-24T03:27:13.711Z,9.83
2018-09-24T03:29:41.586Z,14.57
2018-09-24T03:32:09.498Z,12.37
2018-09-24T03:34:39.388Z,9.90
2018-09-24T03:37:07.423Z,7.80
2018-09-24T03:39:35.310Z,9.83
2018-09-24T03:42:03.250Z,6.80
2018-09-24T03:44:31.096Z,8.47
2018-09-24T03:46:58.951Z,7.97
2018-09-24T03:49:26.899Z,9.83
2018-09-24T03:51:58.651Z,8.40
2018-09-24T03:54:26.506Z,9.60
2018-09-24T03:56:54.455Z,11.23
2018-09-24T03:59:22.337Z,8.57
2018-09-24T04:01:50.210Z,8.90
2018-09-24T04:04:23.572Z,9.93
2018-09-24T04:06:56.926Z,8.87
2018-09-24T04:09:30.442Z,10.30
2018-09-24T04:12:03.582Z,11.53
2018-09-24T04:14:36.983Z,11.70
2018-09-24T04:17:10.260Z,10.40
2018-09-24T04:19:43.553Z,9.63
2018-09-24T04:22:16.712Z,10.50
2018-09-24T04:24:50.051Z,13.87
2018-09-24T04:27:23.483Z,10.10
2018-09-24T04:29:56.851Z,8.20
2018-09-24T04:32:30.171Z,10.13
2018-09-24T04:35:03.335Z,9.80
2018-09-24T04:37:36.758Z,10.93
2018-09-24T04:40:10.282Z,9.17
2018-09-24T04:42:43.598Z,11.37
2018-09-24T04:45:16.859Z,10.53
2018-09-24T04:47:50.304Z,13.70
2018-09-24T04:50:23.479Z,16.90
2018-09-24T04:52:56.809Z,11.13
2018-09-24T04:55:30.003Z,9.53
2018-09-24T04:58:03.315Z,10.90
2018-09-24T05:00:36.691Z,8.93
2018-09-24T05:03:09.879Z,11.53
2018-09-24T05:05:43.234Z,13.60
2018-09-24T05:08:16.430Z,12.00
2018-09-24T05:10:49.794Z,13.93
2018-09-24T05:13:23.130Z,10.53
2018-09-24T05:15:56.527Z,11.53
2018-09-24T05:18:30.084Z,10.23
2018-09-24T05:21:03.363Z,13.27
2018-09-24T05:23:36.702Z,13.37
2018-09-24T05:26:09.991Z,9.00
2018-09-24T05:28:43.459Z,12.90
2018-09-24T05:31:16.727Z,10.83
2018-09-24T05:33:50.141Z,16.93
2018-09-24T05:36:23.556Z,11.87
2018-09-24T05:38:56.867Z,13.63
2018-09-24T05:41:30.055Z,17.37
2018-09-24T05:44:03.233Z,12.03
2018-09-24T05:46:36.703Z,11.47
2018-09-24T05:49:10.124Z,10.03
2018-09-24T05:51:44.534Z,8.20
2018-09-24T05:54:17.896Z,9.77
2018-09-24T05:56:51.307Z,9.77
2018-09-24T05:59:24.640Z,9.00
2018-09-24T06:01:57.968Z,16.13
2018-09-24T06:04:31.185Z,13.30
2018-09-24T06:07:04.619Z,10.90
2018-09-24T06:09:38.115Z,10.27
2018-09-24T06:12:11.578Z,9.40
2018-09-24T06:14:45.011Z,7.67
2018-09-24T06:17:18.287Z,9.57
2018-09-24T06:19:51.630Z,10.50
2018-09-24T06:22:24.948Z,9.67
2018-09-24T06:24:58.350Z,8.80
2018-09-24T06:27:31.623Z,5.63
2018-09-24T06:30:05.007Z,8.80
2018-09-24T06:32:38.563Z,6.70
2018-09-24T06:35:11.868Z,7.63
2018-09-24T06:37:45.203Z,9.17
2018-09-24T06:40:18.490Z,8.90
2018-09-24T06:42:52.124Z,5.87
2018-09-24T06:45:25.536Z,9.33
2018-09-24T06:47:58.927Z,9.00
2018-09-24T06:50:32.323Z,7.07
2018-09-24T06:53:05.597Z,7.50
2018-09-24T06:55:38.893Z,9.07
2018-09-24T07:00:58.868Z,5.90
2018-09-24T07:03:32.130Z,7.97
2018-09-24T07:06:05.427Z,5.53
2018-09-24T07:08:38.893Z,8.67
2018-09-24T07:11:12.421Z,8.30
2018-09-24T07:13:46.447Z,7.73
2018-09-24T07:16:19.908Z,7.07
2018-09-24T07:18:53.415Z,9.70
2018-09-24T07:21:26.713Z,6.97
2018-09-24T07:23:59.959Z,6.53
2018-09-24T07:26:33.222Z,7.13
2018-09-24T07:29:06.603Z,6.10
2018-09-24T07:31:40.011Z,4.53
2018-09-24T07:34:13.281Z,7.07
2018-09-24T07:36:46.611Z,5.37
2018-09-24T07:39:19.895Z,8.50
2018-09-24T07:41:53.279Z,6.23
2018-09-24T07:44:26.965Z,8.33
2018-09-24T07:47:00.398Z,4.87
2018-09-24T07:49:33.623Z,4.87
2018-09-24T07:52:06.955Z,7.23
2018-09-24T07:54:40.635Z,5.33
2018-09-24T07:57:13.974Z,6.20
2018-09-24T07:59:47.398Z,7.57
2018-09-24T08:02:20.752Z,5.83
2018-09-24T08:04:54.010Z,7.93
2018-09-24T08:07:27.511Z,4.83
2018-09-24T08:10:00.982Z,6.17
2018-09-24T08:12:34.410Z,5.43
2018-09-24T08:15:07.632Z,5.90
2018-09-24T08:17:41.192Z,5.47
2018-09-24T08:20:14.700Z,9.80
2018-09-24T08:22:48.262Z,7.60
2018-09-24T08:25:21.579Z,6.17
2018-09-24T08:27:55.111Z,16.43
2018-09-24T08:30:28.367Z,6.87
2018-09-24T08:33:01.779Z,5.37
2018-09-24T08:35:35.299Z,5.07
2018-09-24T08:38:08.700Z,4.83
2018-09-24T08:40:42.362Z,10.70
2018-09-24T08:43:15.842Z,8.37
2018-09-24T08:45:49.297Z,4.13
2018-09-24T08:48:22.634Z,3.87
2018-09-24T08:50:56.031Z,5.63
2018-09-24T08:53:29.520Z,4.37
2018-09-24T08:56:02.935Z,6.60
2018-09-24T08:58:36.267Z,3.87
2018-09-24T09:01:09.762Z,5.70
2018-09-24T09:03:43.255Z,5.90
2018-09-24T09:06:16.620Z,4.67
2018-09-24T09:08:50.002Z,8.47
2018-09-24T09:11:23.434Z,4.87
2018-09-24T09:13:57.279Z,4.00
2018-09-24T09:16:30.728Z,6.73
2018-09-24T09:19:03.922Z,2.90
2018-09-24T09:21:37.332Z,5.10
2018-09-24T09:24:10.624Z,7.33
2018-09-24T09:26:43.972Z,4.87
2018-09-24T09:29:17.399Z,4.90
2018-09-24T09:31:50.759Z,5.67
2018-09-24T09:34:24.064Z,4.17
2018-09-24T09:36:57.327Z,5.97
2018-09-24T09:39:30.608Z,4.60
2018-09-24T09:42:03.888Z,5.13
2018-09-24T09:44:38.022Z,4.50
2018-09-24T09:47:11.399Z,4.47
2018-09-24T09:49:44.695Z,4.37
2018-09-24T09:52:18.002Z,6.03
2018-09-24T09:54:51.407Z,3.87
2018-09-24T09:57:24.748Z,4.13
2018-09-24T09:59:58.159Z,8.40
2018-09-24T10:02:31.471Z,6.13
2018-09-24T10:05:04.759Z,4.90
2018-09-24T10:07:38.084Z,3.07
2018-09-24T10:10:11.567Z,5.50
2018-09-24T10:12:44.715Z,3.97
2018-09-24T10:15:18.255Z,3.77
2018-09-24T10:17:51.710Z,3.07
2018-09-24T10:20:25.148Z,2.43
2018-09-24T10:22:58.558Z,6.00
2018-09-24T10:25:31.723Z,3.50
2018-09-24T10:28:04.997Z,4.63
2018-09-24T10:30:38.383Z,5.17
2018-09-24T10:33:11.639Z,3.30
2018-09-24T10:35:44.914Z,4.53
2018-09-24T10:38:18.222Z,7.33
2018-09-24T10:40:51.500Z,6.30
2018-09-24T10:43:24.763Z,3.60
2018-09-24T10:45:58.177Z,5.07
2018-09-24T10:48:31.556Z,2.40
2018-09-24T10:51:04.734Z,4.87
2018-09-24T10:53:38.168Z,5.43
2018-09-24T10:56:11.410Z,3.53
2018-09-24T10:58:44.706Z,4.07
2018-09-24T11:01:18.079Z,2.30
2018-09-24T11:03:51.469Z,3.63
2018-09-24T11:06:24.742Z,3.10
2018-09-24T11:08:58.140Z,5.70
2018-09-24T11:11:31.311Z,1.97
2018-09-24T11:14:05.691Z,4.33
2018-09-24T11:16:39.390Z,4.53
2018-09-24T11:19:12.401Z,3.57
2018-09-24T11:21:46.248Z,4.27
2018-09-24T11:24:19.526Z,3.77
2018-09-24T11:26:52.962Z,4.57
2018-09-24T11:29:26.330Z,4.03
2018-09-24T11:31:59.690Z,2.53
2018-09-24T11:34:32.969Z,3.40
2018-09-24T11:37:06.255Z,3.30
2018-09-24T11:39:39.516Z,1.73
2018-09-24T11:42:18.458Z,4.27
2018-09-24T11:44:51.883Z,3.23
2018-09-24T11:47:25.167Z,3.80
2018-09-24T11:49:58.594Z,2.03
2018-09-24T11:52:32.497Z,6.83
2018-09-24T11:55:05.818Z,2.37
2018-09-24T11:57:39.207Z,5.00
2018-09-24T12:00:12.596Z,4.90
2018-09-24T12:02:45.867Z,5.20
2018-09-24T12:05:19.215Z,4.60
2018-09-24T12:07:52.626Z,5.80
2018-09-24T12:10:25.942Z,5.70
2018-09-24T12:12:59.331Z,3.60
2018-09-24T12:15:32.582Z,2.83
2018-09-24T12:18:05.895Z,2.57
2018-09-24T12:20:39.150Z,4.10
2018-09-24T12:23:12.423Z,4.50
2018-09-24T12:25:45.698Z,2.80
2018-09-24T12:28:19.017Z,4.30
2018-09-24T12:30:52.418Z,7.00
2018-09-24T12:33:25.819Z,2.80
2018-09-24T12:35:59.210Z,1.50
2018-09-24T12:38:32.475Z,0.80
2018-09-24T12:41:05.795Z,3.37
2018-09-24T12:43:39.200Z,2.60
2018-09-24T12:46:12.601Z,3.30
2018-09-24T12:48:46.023Z,2.30
2018-09-24T12:51:19.950Z,5.17
2018-09-24T12:53:53.171Z,2.03
2018-09-24T12:56:26.443Z,2.43
2018-09-24T12:58:59.878Z,3.63
2018-09-24T13:01:33.359Z,1.67
2018-09-24T13:04:06.642Z,2.97
2018-09-24T13:06:39.951Z,1.80
2018-09-24T13:09:13.246Z,1.90
2018-09-24T13:11:46.631Z,5.83
2018-09-24T13:14:19.946Z,4.07
2018-09-24T13:16:53.370Z,5.10
2018-09-24T13:19:26.634Z,2.30
2018-09-24T13:21:59.775Z,2.17
2018-09-24T13:24:33.102Z,2.50
2018-09-24T13:27:06.407Z,2.83
2018-09-24T13:29:39.802Z,4.33
2018-09-24T13:32:13.071Z,3.93
2018-09-24T13:34:46.454Z,2.63
2018-09-24T13:37:19.645Z,4.57
2018-09-24T13:39:53.043Z,2.97
2018-09-24T13:42:26.328Z,0.97
2018-09-24T13:44:59.494Z,4.40
2018-09-24T13:47:32.899Z,3.73
2018-09-24T13:50:06.204Z,2.10
2018-09-24T13:52:39.503Z,2.87
2018-09-24T13:55:12.826Z,4.77
2018-09-24T13:57:46.276Z,2.60
2018-09-24T14:00:19.556Z,2.43
2018-09-24T14:02:52.962Z,2.77
2018-09-24T14:05:26.237Z,4.30
2018-09-24T14:07:59.615Z,4.90
2018-09-24T14:10:32.815Z,3.43
2018-09-24T14:13:06.188Z,15.33
2018-09-24T14:15:39.494Z,3.30
2018-09-24T14:18:12.855Z,3.33
2018-09-24T14:20:46.270Z,2.43
2018-09-24T14:23:19.670Z,2.57
2018-09-24T14:25:52.938Z,4.13
2018-09-24T14:28:26.224Z,5.33
2018-09-24T14:30:59.656Z,3.40
2018-09-24T14:33:33.059Z,3.13
2018-09-24T14:36:06.353Z,3.60
2018-09-24T14:38:39.739Z,5.13
2018-09-24T14:41:12.931Z,2.17
2018-09-24T14:43:46.334Z,2.83
2018-09-24T14:46:19.613Z,1.90
2018-09-24T14:48:53.010Z,6.03
2018-09-24T14:51:27.680Z,3.67
2018-09-24T14:54:01.045Z,2.70
2018-09-24T14:56:35.623Z,3.43
2018-09-24T14:59:08.951Z,2.53
2018-09-24T15:01:42.261Z,1.97
2018-09-24T15:04:15.438Z,2.10
2018-09-24T15:06:48.868Z,3.80
2018-09-24T15:09:22.122Z,3.70
2018-09-24T15:11:55.519Z,1.47
2018-09-24T15:14:28.828Z,2.27
2018-09-24T15:17:02.123Z,2.00
2018-09-24T15:19:35.553Z,2.10
2018-09-24T15:22:08.964Z,3.47
2018-09-24T15:24:42.351Z,1.90
2018-09-24T15:27:15.618Z,3.07
2018-09-24T15:29:49.014Z,1.00
2018-09-24T15:32:22.283Z,0.90
2018-09-24T15:34:55.743Z,2.03
2018-09-24T15:37:29.969Z,1.63
2018-09-24T15:40:03.269Z,2.60
2018-09-24T15:42:36.671Z,2.63
2018-09-24T15:45:09.988Z,1.83
2018-09-24T15:47:43.142Z,2.97
2018-09-24T15:50:17.199Z,3.50
2018-09-24T15:52:50.546Z,2.60
2018-09-24T15:55:24.099Z,1.37
2018-09-24T15:57:57.411Z,3.23
2018-09-24T16:00:31.455Z,2.00
2018-09-24T16:03:04.859Z,3.63
2018-09-24T16:05:38.268Z,3.47
2018-09-24T16:08:11.798Z,1.57
2018-09-24T16:10:45.076Z,3.83
2018-09-24T16:13:18.463Z,1.70
2018-09-24T16:15:51.907Z,6.67
2018-09-24T16:18:25.172Z,2.53
2018-09-24T16:20:59.200Z,2.10
2018-09-24T16:23:32.635Z,2.03
2018-09-24T16:26:05.899Z,3.13
2018-09-24T16:28:39.320Z,2.20
2018-09-24T16:31:12.475Z,2.40
2018-09-24T16:33:45.887Z,3.10
2018-09-24T16:36:19.359Z,4.70
2018-09-24T16:38:52.803Z,3.93
2018-09-24T16:41:26.102Z,2.10
2018-09-24T16:43:59.567Z,2.40
2018-09-24T16:46:34.063Z,6.23
2018-09-24T16:49:07.370Z,5.37
2018-09-24T16:51:42.764Z,4.10
2018-09-24T16:54:16.066Z,2.10
2018-09-24T16:56:49.462Z,3.30
2018-09-24T16:59:22.659Z,1.97
2018-09-24T17:01:56.053Z,2.77
2018-09-24T17:04:29.306Z,1.13
2018-09-24T17:07:02.496Z,4.37
2018-09-24T17:09:35.891Z,4.00
2018-09-24T17:12:09.505Z,1.47
2018-09-24T17:14:43.302Z,1.83
2018-09-24T17:17:16.622Z,4.13
2018-09-24T17:19:49.986Z,2.70
2018-09-24T17:22:23.253Z,3.27
2018-09-24T17:24:56.645Z,1.17
2018-09-24T17:27:29.927Z,4.37
2018-09-24T17:30:03.123Z,1.90
2018-09-24T17:32:36.509Z,3.50
2018-09-24T17:35:09.807Z,2.30
2018-09-24T17:37:43.096Z,3.07
2018-09-24T17:40:16.305Z,2.17
2018-09-24T17:42:49.602Z,2.67
2018-09-24T17:45:22.878Z,3.53
2018-09-24T17:47:56.268Z,2.57
2018-09-24T17:50:29.667Z,2.27
2018-09-24T17:53:04.200Z,2.37
2018-09-24T17:55:37.507Z,2.40
2018-09-24T17:58:11.053Z,2.33
2018-09-24T18:00:44.451Z,2.47
2018-09-24T18:03:17.755Z,1.60
2018-09-24T18:05:51.221Z,1.53
2018-09-24T18:08:24.342Z,2.47
2018-09-24T18:10:57.815Z,3.03
2018-09-24T18:13:31.129Z,1.97
2018-09-24T18:16:04.392Z,2.67
2018-09-24T18:18:37.783Z,3.33
2018-09-24T18:21:11.042Z,3.10
2018-09-24T18:23:44.479Z,6.03
2018-09-24T18:26:17.883Z,4.27
2018-09-24T18:28:51.287Z,5.00
2018-09-24T18:31:24.568Z,3.73
2018-09-24T18:33:58.044Z,5.87
2018-09-24T18:36:31.250Z,2.10
2018-09-24T18:39:04.526Z,2.83
2018-09-24T18:41:37.926Z,1.60
2018-09-24T18:44:11.446Z,1.50
2018-09-24T18:46:44.891Z,3.33
2018-09-24T18:49:18.120Z,6.00
2018-09-24T18:51:54.249Z,2.57
2018-09-24T18:54:27.527Z,3.60
2018-09-24T18:57:00.815Z,5.53
2018-09-24T18:59:34.216Z,1.73
2018-09-24T19:02:07.527Z,4.10
2018-09-24T19:04:40.921Z,1.93
2018-09-24T19:07:14.538Z,3.03
2018-09-24T19:09:48.077Z,7.70
2018-09-24T19:12:21.532Z,2.97
2018-09-24T19:14:54.950Z,1.67
2018-09-24T19:17:28.250Z,1.40
2018-09-24T19:20:01.847Z,5.53
2018-09-24T19:22:35.315Z,3.97
2018-09-24T19:25:08.678Z,1.70
2018-09-24T19:27:42.163Z,3.23
2018-09-24T19:30:15.579Z,3.90
2018-09-24T19:32:48.839Z,1.80
2018-09-24T19:35:22.143Z,3.30
2018-09-24T19:37:55.679Z,5.73
2018-09-24T19:40:29.059Z,3.20
2018-09-24T19:43:02.414Z,3.10
2018-09-24T19:45:35.915Z,3.47
2018-09-24T19:48:09.299Z,2.10
2018-09-24T19:50:42.650Z,7.93
2018-09-24T19:53:15.955Z,3.90
2018-09-24T19:55:49.472Z,1.27
2018-09-24T19:58:22.804Z,2.13
2018-09-24T20:00:56.282Z,4.33
2018-09-24T20:03:29.529Z,44.30
2018-09-24T20:06:02.870Z,25.87
2018-09-24T20:08:37.282Z,13.20
2018-09-24T20:11:10.605Z,7.43
2018-09-24T20:13:44.025Z,6.80
2018-09-24T20:16:17.295Z,2.57
2018-09-24T20:18:50.709Z,3.33
2018-09-24T20:21:23.967Z,3.70
2018-09-24T20:23:57.283Z,2.70
2018-09-24T20:26:30.678Z,2.73
2018-09-24T20:29:03.956Z,4.83
2018-09-24T20:31:37.378Z,5.00
2018-09-24T20:34:10.603Z,4.07
2018-09-24T20:36:44.031Z,3.53
2018-09-24T20:39:17.839Z,4.03
2018-09-24T20:41:51.349Z,3.43
2018-09-24T20:44:24.634Z,3.83
2018-09-24T20:46:57.926Z,4.53
2018-09-24T20:49:31.218Z,4.20
2018-09-24T20:52:06.512Z,5.73
2018-09-24T20:54:39.901Z,2.47
2018-09-24T20:57:13.167Z,6.53
2018-09-24T20:59:46.539Z,6.90
2018-09-24T21:02:19.803Z,4.07
2018-09-24T21:04:53.209Z,6.07
2018-09-24T21:07:26.499Z,1.57
2018-09-24T21:09:59.822Z,5.63
2018-09-24T21:12:33.104Z,4.37
2018-09-24T21:15:06.401Z,4.50
2018-09-24T21:17:39.863Z,3.53
2018-09-24T21:20:13.043Z,4.70
2018-09-24T21:22:46.430Z,3.83
2018-09-24T21:25:19.727Z,2.63
2018-09-24T21:27:53.113Z,1.93
2018-09-24T21:30:26.394Z,3.20
2018-09-24T21:32:59.806Z,2.27
2018-09-24T21:35:33.082Z,4.70
2018-09-24T21:38:06.290Z,5.07
2018-09-24T21:40:39.602Z,4.03
2018-09-24T21:43:12.896Z,3.07
2018-09-24T21:45:46.373Z,4.30
2018-09-24T21:48:19.644Z,2.40
2018-09-24T21:50:53.038Z,4.23
2018-09-24T21:53:26.342Z,3.37
2018-09-24T21:55:59.654Z,6.07
2018-09-24T21:58:32.928Z,5.93
2018-09-24T22:01:06.251Z,5.03
2018-09-24T22:03:39.638Z,4.87
2018-09-24T22:06:12.963Z,5.17
2018-09-24T22:08:46.398Z,3.47
2018-09-24T22:11:19.658Z,5.03
2018-09-24T22:13:52.954Z,3.30
2018-09-24T22:16:33.031Z,5.93
2018-09-24T22:19:06.439Z,2.83
2018-09-24T22:21:39.882Z,5.00
2018-09-24T22:24:13.190Z,5.43
2018-09-24T22:26:46.519Z,3.87
2018-09-24T22:29:19.806Z,2.50
2018-09-24T22:31:53.182Z,4.27
2018-09-24T22:34:26.363Z,5.67
2018-09-24T22:36:59.790Z,2.73
2018-09-24T22:39:33.095Z,2.67
2018-09-24T22:42:06.351Z,4.63
2018-09-24T22:44:39.746Z,3.20
2018-09-24T22:47:12.935Z,2.57
2018-09-24T22:49:46.252Z,4.17
2018-09-24T22:52:19.516Z,7.27
2018-09-24T22:54:52.939Z,4.23
2018-09-24T22:57:26.674Z,3.83
2018-09-24T23:00:00.147Z,4.50
2018-09-24T23:02:33.417Z,2.03
2018-09-24T23:05:06.707Z,3.23
2018-09-24T23:07:40.167Z,5.20
2018-09-24T23:10:13.467Z,4.60
2018-09-24T23:12:46.866Z,3.23
2018-09-24T23:15:20.251Z,5.30
2018-09-24T23:17:53.650Z,3.80
2018-09-24T23:20:26.941Z,1.70
2018-09-24T23:23:00.355Z,7.60
2018-09-24T23:25:33.652Z,4.73
2018-09-24T23:28:07.761Z,3.17
2018-09-24T23:30:41.166Z,5.70
2018-09-24T23:33:14.448Z,7.70
2018-09-24T23:35:47.847Z,4.67
2018-09-24T23:38:21.115Z,3.07
2018-09-24T23:40:54.459Z,5.73
2018-09-24T23:43:27.732Z,8.33
2018-09-24T23:46:01.014Z,4.80
2018-09-24T23:48:34.299Z,4.50
2018-09-24T23:51:07.575Z,3.83
2018-09-24T23:53:40.854Z,4.17
2018-09-24T23:56:14.171Z,6.13
2018-09-24T23:58:47.887Z,5.57
